createdAt,value
2022-11-26T00:01:17.325Z,8.20
2022-11-26T00:03:44.910Z,8.20
2022-11-26T00:06:33.714Z,8.20
2022-11-26T00:09:01.230Z,8.30
2022-11-26T00:11:28.237Z,8.30
2022-11-26T00:13:55.217Z,8.30
2022-11-26T00:16:22.171Z,8.30
2022-11-26T00:18:49.106Z,8.30
2022-11-26T00:21:23.196Z,8.30
2022-11-26T00:23:51.161Z,8.40
2022-11-26T00:26:21.158Z,8.40
2022-11-26T00:29:01.314Z,8.30
2022-11-26T00:31:29.305Z,8.40
2022-11-26T00:33:56.648Z,8.30
2022-11-26T00:36:30.120Z,8.30
2022-11-26T00:39:04.176Z,8.40
2022-11-26T00:41:38.224Z,8.40
2022-11-26T00:44:22.550Z,8.40
2022-11-26T00:46:50.892Z,8.40
2022-11-26T00:49:18.629Z,8.40
2022-11-26T00:51:46.650Z,8.40
2022-11-26T00:54:17.279Z,8.40
2022-11-26T00:56:44.952Z,8.30
2022-11-26T00:59:19.635Z,8.30
2022-11-26T01:01:46.712Z,8.20
2022-11-26T01:04:13.842Z,8.20
2022-11-26T01:06:43.988Z,8.20
2022-11-26T01:09:19.835Z,8.10
2022-11-26T01:11:52.366Z,8.20
2022-11-26T01:14:22.902Z,8.10
2022-11-26T01:16:50.877Z,8.10
2022-11-26T01:19:17.867Z,8.10
2022-11-26T01:21:44.846Z,8.20
2022-11-26T01:24:11.789Z,8.20
2022-11-26T01:26:44.022Z,8.20
2022-11-26T01:29:18.988Z,8.20
2022-11-26T01:31:46.210Z,8.20
2022-11-26T01:34:13.763Z,8.10
2022-11-26T01:36:41.902Z,8.10
2022-11-26T01:39:20.214Z,8.10
2022-11-26T01:41:52.922Z,8.10
2022-11-26T01:44:26.641Z,8.10
2022-11-26T01:46:54.406Z,8.10
2022-11-26T01:49:23.265Z,8.10
2022-11-26T01:51:59.211Z,8.10
2022-11-26T01:54:26.569Z,8.20
2022-11-26T01:56:56.177Z,8.10
2022-11-26T01:59:38.195Z,8.10
2022-11-26T02:02:05.661Z,8.20
2022-11-26T02:04:37.924Z,8.20
2022-11-26T02:07:05.722Z,8.20
2022-11-26T02:09:33.191Z,8.20
2022-11-26T02:12:00.531Z,8.20
2022-11-26T02:14:35.204Z,8.20
2022-11-26T02:17:20.951Z,8.20
2022-11-26T02:20:31.560Z,8.20
2022-11-26T02:23:06.447Z,8.20
2022-11-26T02:25:42.695Z,8.10
2022-11-26T02:28:26.120Z,8.20
2022-11-26T02:31:05.667Z,8.10
2022-11-26T02:33:42.754Z,8.10
2022-11-26T02:36:22.631Z,8.10
2022-11-26T02:38:50.771Z,8.10
2022-11-26T02:41:17.727Z,8.10
2022-11-26T02:43:45.132Z,8.10
2022-11-26T02:46:17.601Z,8.00
2022-11-26T02:48:48.285Z,8.00
2022-11-26T02:51:20.855Z,8.00
2022-11-26T02:53:49.985Z,7.90
2022-11-26T02:56:21.482Z,7.80
2022-11-26T02:58:50.726Z,7.80
2022-11-26T03:01:34.425Z,7.80
2022-11-26T03:04:07.657Z,7.70
2022-11-26T03:06:35.583Z,7.70
2022-11-26T03:09:02.710Z,7.60
2022-11-26T03:11:29.747Z,7.60
2022-11-26T03:13:56.845Z,7.70
2022-11-26T03:16:23.879Z,7.60
2022-11-26T03:18:50.916Z,7.60
2022-11-26T03:21:17.902Z,7.60
2022-11-26T03:23:44.904Z,7.50
2022-11-26T03:26:11.903Z,7.50
2022-11-26T03:28:38.894Z,7.50
2022-11-26T03:31:06.032Z,7.50
2022-11-26T03:33:32.984Z,7.50
2022-11-26T03:35:59.975Z,7.50
2022-11-26T03:38:27.115Z,7.50
2022-11-26T03:41:03.480Z,7.50
2022-11-26T03:43:30.469Z,7.50
2022-11-26T03:45:57.636Z,7.50
2022-11-26T03:48:24.723Z,7.50
2022-11-26T03:50:51.740Z,7.40
2022-11-26T03:53:18.758Z,7.40
2022-11-26T03:55:45.747Z,7.40
2022-11-26T03:58:12.690Z,7.40
2022-11-26T04:00:39.696Z,7.40
2022-11-26T04:03:06.723Z,7.40
2022-11-26T04:05:33.763Z,7.40
2022-11-26T04:08:00.728Z,7.40
2022-11-26T04:10:27.701Z,7.40
2022-11-26T04:12:54.788Z,7.40
2022-11-26T04:15:21.813Z,7.30
2022-11-26T04:17:48.765Z,7.30
2022-11-26T04:20:15.914Z,7.20
2022-11-26T04:22:42.899Z,7.20
2022-11-26T04:25:09.932Z,7.20
2022-11-26T04:27:36.900Z,7.20
2022-11-26T04:30:06.285Z,7.20
2022-11-26T04:32:33.351Z,7.10
2022-11-26T04:35:00.353Z,7.10
2022-11-26T04:37:27.333Z,7.10
2022-11-26T04:39:54.269Z,7.00
2022-11-26T04:42:21.219Z,7.00
2022-11-26T04:44:48.191Z,7.00
2022-11-26T04:47:15.598Z,7.00
2022-11-26T04:49:42.841Z,7.00
2022-11-26T04:52:10.169Z,7.00
2022-11-26T04:54:37.523Z,7.00
2022-11-26T04:57:04.921Z,7.00
2022-11-26T04:59:31.886Z,7.00
2022-11-26T05:01:59.668Z,7.00
2022-11-26T05:04:27.947Z,7.00
2022-11-26T05:06:55.369Z,7.00
2022-11-26T05:09:22.824Z,7.00
2022-11-26T05:11:49.828Z,6.90
2022-11-26T05:14:16.806Z,6.90
2022-11-26T05:16:43.875Z,6.90
2022-11-26T05:19:10.886Z,6.90
2022-11-26T05:21:37.858Z,6.90
2022-11-26T05:24:05.228Z,6.90
2022-11-26T05:26:32.227Z,6.90
2022-11-26T05:28:59.242Z,6.90
2022-11-26T05:31:26.255Z,6.90
2022-11-26T05:33:53.252Z,6.90
2022-11-26T05:36:20.408Z,6.90
2022-11-26T05:38:47.399Z,6.90
2022-11-26T05:41:14.386Z,7.00
2022-11-26T05:43:41.302Z,6.90
2022-11-26T05:46:09.146Z,6.90
2022-11-26T05:48:36.175Z,6.90
2022-11-26T05:51:04.221Z,6.90
2022-11-26T05:53:31.241Z,6.90
2022-11-26T05:55:58.423Z,6.90
2022-11-26T05:58:25.740Z,6.90
2022-11-26T06:00:52.992Z,6.80
2022-11-26T06:03:20.695Z,6.80
2022-11-26T06:05:47.880Z,6.90
2022-11-26T06:08:14.923Z,6.90
2022-11-26T06:10:43.136Z,6.80
2022-11-26T06:13:10.131Z,6.80
2022-11-26T06:15:37.090Z,6.90
2022-11-26T06:18:04.114Z,6.90
2022-11-26T06:20:31.147Z,6.90
2022-11-26T06:22:58.134Z,6.90
2022-11-26T06:25:25.431Z,7.00
2022-11-26T06:27:52.353Z,7.00
2022-11-26T06:30:19.351Z,7.00
2022-11-26T06:32:46.345Z,7.00
2022-11-26T06:35:13.306Z,7.00
2022-11-26T06:37:40.390Z,7.00
2022-11-26T06:40:08.096Z,6.90
2022-11-26T06:42:35.215Z,6.90
2022-11-26T06:45:02.284Z,6.80
2022-11-26T06:47:29.213Z,6.80
2022-11-26T06:49:56.110Z,6.80
2022-11-26T06:52:23.056Z,6.80
2022-11-26T06:54:51.193Z,6.80
2022-11-26T06:57:18.825Z,6.80
2022-11-26T06:59:45.819Z,6.80
2022-11-26T07:02:12.887Z,6.80
2022-11-26T07:04:40.134Z,6.70
2022-11-26T07:07:07.289Z,6.70
2022-11-26T07:09:36.821Z,6.70
2022-11-26T07:12:04.230Z,6.70
2022-11-26T07:14:31.166Z,6.80
2022-11-26T07:16:58.121Z,6.80
2022-11-26T07:19:25.254Z,6.90
2022-11-26T07:21:52.177Z,7.60
2022-11-26T07:24:19.121Z,9.00
2022-11-26T07:26:46.097Z,10.40
2022-11-26T07:29:13.186Z,11.60
2022-11-26T07:31:40.136Z,12.70
2022-11-26T07:34:07.085Z,13.70
2022-11-26T07:36:34.254Z,14.70
2022-11-26T07:39:02.495Z,15.70
2022-11-26T07:41:30.550Z,16.60
2022-11-26T07:43:57.501Z,17.40
2022-11-26T07:46:26.131Z,18.10
2022-11-26T07:48:55.633Z,18.90
2022-11-26T07:51:33.227Z,19.50
2022-11-26T07:54:05.924Z,20.10
2022-11-26T07:56:33.268Z,20.50
2022-11-26T07:59:01.306Z,21.00
2022-11-26T08:01:31.585Z,21.40
2022-11-26T08:04:00.732Z,21.50
2022-11-26T08:06:30.395Z,21.80
2022-11-26T08:08:59.958Z,22.30
2022-11-26T08:11:30.459Z,22.70
2022-11-26T08:14:00.178Z,22.80
2022-11-26T08:16:29.005Z,22.70
2022-11-26T08:19:00.424Z,22.80
2022-11-26T08:21:27.489Z,22.80
2022-11-26T08:23:54.739Z,22.70
2022-11-26T08:26:27.538Z,22.60
2022-11-26T08:29:00.692Z,22.30
2022-11-26T08:31:28.493Z,21.90
2022-11-26T08:34:03.250Z,21.40
2022-11-26T08:36:31.386Z,20.40
2022-11-26T08:39:00.114Z,19.70
2022-11-26T08:41:27.457Z,19.50
2022-11-26T08:44:09.611Z,19.40
2022-11-26T08:46:38.688Z,19.30
2022-11-26T08:49:07.152Z,19.40
2022-11-26T08:51:34.668Z,19.50
2022-11-26T08:54:02.183Z,19.50
2022-11-26T08:56:29.696Z,19.20
2022-11-26T08:58:56.958Z,18.90
2022-11-26T09:01:29.444Z,18.70
2022-11-26T09:03:59.288Z,18.80
2022-11-26T09:06:29.360Z,19.00
2022-11-26T09:09:12.780Z,19.30
2022-11-26T09:11:54.081Z,19.60
2022-11-26T09:14:25.054Z,20.00
2022-11-26T09:16:53.829Z,20.10
2022-11-26T09:19:21.481Z,20.40
2022-11-26T09:21:49.118Z,20.80
2022-11-26T09:24:17.190Z,21.00
2022-11-26T09:26:44.688Z,21.30
2022-11-26T09:29:19.216Z,21.60
2022-11-26T09:32:15.429Z,22.10
2022-11-26T09:34:33.842Z,22.70
2022-11-26T09:37:00.779Z,23.30
2022-11-26T09:39:27.906Z,23.70
2022-11-26T09:42:05.399Z,23.80
2022-11-26T09:44:32.297Z,23.90
2022-11-26T09:47:20.075Z,23.70
2022-11-26T09:49:46.894Z,23.90
2022-11-26T09:52:16.010Z,24.60
2022-11-26T09:54:43.923Z,25.20
2022-11-26T09:57:23.523Z,25.40
2022-11-26T09:59:51.994Z,25.80
2022-11-26T10:02:19.453Z,26.00
2022-11-26T10:04:47.023Z,26.20
2022-11-26T10:07:41.460Z,26.20
2022-11-26T10:10:13.084Z,26.30
2022-11-26T10:13:18.057Z,26.40
2022-11-26T10:16:08.877Z,26.50
2022-11-26T10:18:44.426Z,26.80
2022-11-26T10:21:11.391Z,27.50
2022-11-26T10:24:20.681Z,28.30
2022-11-26T10:26:48.260Z,28.90
2022-11-26T10:29:33.464Z,29.70
2022-11-26T10:32:02.880Z,30.00
2022-11-26T10:34:39.560Z,30.00
2022-11-26T10:37:06.836Z,29.50
2022-11-26T10:39:33.687Z,30.00
2022-11-26T10:42:04.474Z,30.80
2022-11-26T10:44:31.322Z,31.00
2022-11-26T10:46:58.863Z,30.40
2022-11-26T10:49:29.604Z,30.00
2022-11-26T10:51:58.555Z,29.60
2022-11-26T10:54:28.431Z,28.90
2022-11-26T10:56:56.173Z,28.30
2022-11-26T10:59:30.956Z,28.20
2022-11-26T11:02:02.792Z,27.80
2022-11-26T11:04:31.367Z,27.70
2022-11-26T11:06:58.398Z,28.20
2022-11-26T11:09:25.718Z,28.40
2022-11-26T11:12:07.863Z,28.60
2022-11-26T11:14:39.608Z,28.40
2022-11-26T11:17:24.024Z,28.40
2022-11-26T11:19:51.724Z,28.90
2022-11-26T11:22:21.945Z,29.60
2022-11-26T11:24:49.069Z,29.30
2022-11-26T11:27:27.167Z,28.80
2022-11-26T11:29:59.574Z,28.20
2022-11-26T11:32:33.179Z,28.10
2022-11-26T11:35:21.289Z,28.20
2022-11-26T11:37:49.454Z,28.10
2022-11-26T11:40:20.523Z,28.30
2022-11-26T11:42:49.497Z,28.50
2022-11-26T11:45:28.075Z,28.70
2022-11-26T11:47:57.569Z,29.30
2022-11-26T11:50:29.990Z,29.50
2022-11-26T11:53:00.211Z,29.20
2022-11-26T11:55:36.569Z,28.60
2022-11-26T11:58:26.403Z,28.40
2022-11-26T12:00:57.163Z,28.30
2022-11-26T12:03:27.194Z,27.50
2022-11-26T12:06:00.140Z,27.40
2022-11-26T12:08:26.918Z,27.30
2022-11-26T12:10:53.677Z,27.70
2022-11-26T12:13:22.025Z,28.30
2022-11-26T12:15:49.015Z,28.20
2022-11-26T12:18:22.073Z,28.10
2022-11-26T12:20:48.840Z,28.30
2022-11-26T12:23:22.830Z,29.10
2022-11-26T12:26:00.805Z,29.10
2022-11-26T12:28:29.343Z,28.80
2022-11-26T12:31:04.201Z,28.80
2022-11-26T12:33:43.080Z,29.10
2022-11-26T12:36:16.665Z,28.90
2022-11-26T12:38:47.393Z,29.10
2022-11-26T12:41:19.932Z,29.20
2022-11-26T12:43:47.082Z,29.00
2022-11-26T12:46:26.518Z,28.60
2022-11-26T12:49:19.584Z,28.50
2022-11-26T12:52:06.950Z,28.50
2022-11-26T12:54:39.540Z,28.40
2022-11-26T12:57:26.913Z,28.20
2022-11-26T13:00:00.612Z,28.30
2022-11-26T13:02:32.720Z,28.20
2022-11-26T13:04:59.934Z,28.50
2022-11-26T13:07:44.126Z,28.50
2022-11-26T13:10:11.127Z,28.20
2022-11-26T13:12:42.633Z,28.00
2022-11-26T13:15:17.479Z,28.20
2022-11-26T13:17:45.805Z,28.10
2022-11-26T13:20:31.038Z,28.00
2022-11-26T13:23:07.003Z,27.60
2022-11-26T13:25:33.920Z,27.20
2022-11-26T13:28:04.183Z,26.90
2022-11-26T13:30:31.188Z,26.80
2022-11-26T13:33:07.265Z,26.70
2022-11-26T13:35:34.146Z,26.30
2022-11-26T13:38:10.864Z,26.30
2022-11-26T13:41:01.344Z,26.60
2022-11-26T13:43:49.982Z,26.80
2022-11-26T13:46:22.109Z,26.80
2022-11-26T13:49:00.059Z,26.40
2022-11-26T13:51:37.983Z,25.70
2022-11-26T13:54:09.022Z,25.00
2022-11-26T13:56:37.248Z,24.70
2022-11-26T13:59:18.485Z,24.30
2022-11-26T14:01:47.300Z,23.80
2022-11-26T14:04:23.113Z,23.30
2022-11-26T14:07:10.235Z,22.60
2022-11-26T14:09:43.174Z,22.00
2022-11-26T14:12:10.875Z,21.60
2022-11-26T14:14:38.699Z,21.50
2022-11-26T14:17:08.602Z,21.40
2022-11-26T14:19:41.285Z,21.20
2022-11-26T14:22:08.092Z,20.80
2022-11-26T14:24:53.306Z,20.40
2022-11-26T14:27:24.307Z,20.10
2022-11-26T14:30:14.329Z,19.60
2022-11-26T14:32:44.250Z,19.10
2022-11-26T14:35:29.275Z,18.50
2022-11-26T14:37:59.874Z,17.90
2022-11-26T14:40:33.307Z,17.40
2022-11-26T14:43:26.842Z,17.00
2022-11-26T14:46:16.106Z,16.70
2022-11-26T14:48:48.234Z,16.40
2022-11-26T14:51:26.430Z,16.10
2022-11-26T14:53:54.744Z,15.90
2022-11-26T14:56:24.713Z,15.60
2022-11-26T14:58:58.442Z,15.40
2022-11-26T15:01:26.871Z,15.30
2022-11-26T15:04:01.096Z,15.00
2022-11-26T15:06:34.984Z,14.90
2022-11-26T15:09:15.342Z,14.70
2022-11-26T15:11:49.334Z,14.50
2022-11-26T15:14:29.939Z,14.20
2022-11-26T15:17:02.758Z,14.00
2022-11-26T15:19:34.801Z,13.80
2022-11-26T15:22:07.074Z,13.60
2022-11-26T15:24:34.431Z,13.50
2022-11-26T15:27:01.378Z,13.30
2022-11-26T15:29:30.803Z,13.10
2022-11-26T15:31:58.422Z,12.90
2022-11-26T15:34:26.799Z,12.70
2022-11-26T15:36:53.842Z,12.50
2022-11-26T15:39:38.995Z,12.40
2022-11-26T15:42:23.934Z,12.20
2022-11-26T15:44:50.990Z,12.00
2022-11-26T15:47:22.633Z,11.90
2022-11-26T15:49:55.146Z,11.80
2022-11-26T15:52:26.400Z,11.70
2022-11-26T15:55:14.694Z,11.70
2022-11-26T15:57:43.480Z,11.60
2022-11-26T16:00:38.440Z,11.50
2022-11-26T16:03:36.135Z,11.50
2022-11-26T16:06:06.645Z,11.50
2022-11-26T16:08:34.439Z,11.40
2022-11-26T16:11:04.090Z,11.30
2022-11-26T16:13:34.903Z,11.30
2022-11-26T16:16:12.828Z,11.20
2022-11-26T16:18:59.365Z,11.20
2022-11-26T16:21:30.291Z,11.20
2022-11-26T16:24:05.691Z,11.10
2022-11-26T16:26:52.540Z,11.00
2022-11-26T16:29:19.698Z,11.00
2022-11-26T16:31:46.918Z,10.90
2022-11-26T16:34:14.135Z,10.90
2022-11-26T16:36:42.802Z,10.80
2022-11-26T16:39:12.648Z,10.80
2022-11-26T16:41:39.595Z,10.70
2022-11-26T16:44:07.110Z,10.70
2022-11-26T16:46:38.489Z,10.60
2022-11-26T16:49:05.597Z,10.60
2022-11-26T16:51:32.678Z,10.50
2022-11-26T16:53:59.611Z,10.50
2022-11-26T16:56:37.419Z,10.50
2022-11-26T16:59:07.101Z,10.40
2022-11-26T17:01:35.191Z,10.40
2022-11-26T17:04:02.132Z,10.30
2022-11-26T17:06:33.769Z,10.30
2022-11-26T17:09:01.654Z,10.20
2022-11-26T17:11:28.645Z,10.20
2022-11-26T17:13:55.749Z,10.10
2022-11-26T17:16:24.039Z,10.10
2022-11-26T17:18:51.922Z,10.00
2022-11-26T17:21:18.915Z,10.10
2022-11-26T17:23:46.653Z,10.00
2022-11-26T17:26:21.025Z,10.00
2022-11-26T17:28:48.959Z,10.00
2022-11-26T17:31:16.372Z,9.90
2022-11-26T17:33:43.458Z,9.90
2022-11-26T17:36:22.035Z,9.80
2022-11-26T17:38:49.452Z,9.80
2022-11-26T17:41:17.155Z,9.80
2022-11-26T17:43:44.282Z,9.70
2022-11-26T17:46:21.028Z,9.70
2022-11-26T17:48:49.320Z,9.70
2022-11-26T17:51:16.896Z,9.60
2022-11-26T17:53:45.128Z,9.60
2022-11-26T17:56:23.422Z,9.60
2022-11-26T17:58:51.177Z,9.60
2022-11-26T18:01:18.856Z,9.50
2022-11-26T18:03:46.794Z,9.50
2022-11-26T18:06:18.501Z,9.50
2022-11-26T18:08:46.050Z,9.40
2022-11-26T18:11:15.284Z,9.40
2022-11-26T18:13:42.664Z,9.40
2022-11-26T18:16:09.828Z,9.30
2022-11-26T18:18:36.867Z,9.30
2022-11-26T18:21:03.885Z,9.30
2022-11-26T18:23:30.910Z,9.30
2022-11-26T18:25:58.192Z,9.20
2022-11-26T18:28:25.247Z,9.20
2022-11-26T18:30:58.297Z,9.20
2022-11-26T18:33:25.436Z,9.10
2022-11-26T18:35:54.908Z,9.10
2022-11-26T18:38:21.871Z,9.10
2022-11-26T18:40:58.664Z,9.00
2022-11-26T18:43:26.283Z,9.00
2022-11-26T18:45:53.244Z,9.00
2022-11-26T18:48:20.197Z,9.00
2022-11-26T18:50:56.310Z,8.90
2022-11-26T18:53:23.261Z,9.00
2022-11-26T18:55:50.668Z,8.90
2022-11-26T18:58:18.588Z,8.90
2022-11-26T19:00:46.395Z,8.80
2022-11-26T19:03:14.475Z,8.80
2022-11-26T19:05:45.818Z,8.80
2022-11-26T19:08:16.346Z,8.80
2022-11-26T19:10:43.680Z,8.80
2022-11-26T19:13:10.626Z,8.80
2022-11-26T19:15:45.572Z,8.70
2022-11-26T19:18:13.439Z,8.80
2022-11-26T19:20:49.179Z,8.70
2022-11-26T19:23:16.853Z,8.80
2022-11-26T19:25:43.874Z,8.70
2022-11-26T19:28:15.634Z,8.70
2022-11-26T19:30:43.708Z,8.70
2022-11-26T19:33:10.824Z,8.70
2022-11-26T19:35:41.073Z,8.70
2022-11-26T19:38:08.055Z,8.70
2022-11-26T19:40:35.058Z,8.60
2022-11-26T19:43:02.002Z,8.60
2022-11-26T19:45:29.196Z,8.60
2022-11-26T19:47:56.305Z,8.60
2022-11-26T19:50:23.309Z,8.50
2022-11-26T19:52:50.225Z,8.50
2022-11-26T19:55:17.618Z,8.50
2022-11-26T19:57:45.601Z,8.50
2022-11-26T20:00:13.403Z,8.40
2022-11-26T20:02:41.026Z,8.40
2022-11-26T20:05:09.119Z,8.40
2022-11-26T20:07:36.352Z,8.40
2022-11-26T20:10:04.247Z,8.40
2022-11-26T20:12:31.717Z,8.30
2022-11-26T20:14:59.577Z,8.30
2022-11-26T20:17:26.606Z,8.30
2022-11-26T20:19:54.201Z,8.30
2022-11-26T20:22:21.561Z,8.30
2022-11-26T20:24:48.654Z,8.30
2022-11-26T20:27:15.675Z,8.30
2022-11-26T20:29:42.776Z,8.30
2022-11-26T20:32:10.334Z,8.30
2022-11-26T20:34:37.514Z,8.30
2022-11-26T20:37:04.774Z,8.20
2022-11-26T20:39:33.666Z,8.20
2022-11-26T20:42:00.555Z,8.20
2022-11-26T20:44:28.646Z,8.20
2022-11-26T20:46:57.006Z,8.10
2022-11-26T20:49:24.251Z,8.10
2022-11-26T20:51:51.226Z,8.10
2022-11-26T20:54:18.170Z,8.10
2022-11-26T20:56:45.157Z,8.10
2022-11-26T20:59:12.160Z,8.10
2022-11-26T21:01:39.649Z,8.10
2022-11-26T21:04:06.977Z,8.10
2022-11-26T21:06:35.251Z,8.10
2022-11-26T21:09:04.844Z,8.10
2022-11-26T21:11:31.894Z,8.10
2022-11-26T21:14:00.079Z,8.10
2022-11-26T21:16:28.523Z,8.00
2022-11-26T21:18:56.271Z,8.00
2022-11-26T21:21:24.736Z,8.00
2022-11-26T21:23:52.172Z,8.00
2022-11-26T21:26:25.627Z,8.00
2022-11-26T21:28:57.945Z,8.00
2022-11-26T21:31:26.227Z,7.90
2022-11-26T21:34:01.985Z,7.90
2022-11-26T21:36:31.130Z,7.90
2022-11-26T21:38:58.576Z,7.90
2022-11-26T21:41:26.619Z,7.80
2022-11-26T21:43:54.069Z,7.80
2022-11-26T21:46:24.203Z,7.80
2022-11-26T21:48:55.743Z,7.80
2022-11-26T21:51:25.070Z,7.70
2022-11-26T21:53:54.382Z,7.70
2022-11-26T21:56:24.254Z,7.70
2022-11-26T21:58:51.699Z,7.70
2022-11-26T22:01:27.528Z,7.70
2022-11-26T22:03:56.851Z,7.70
2022-11-26T22:06:24.243Z,7.70
2022-11-26T22:08:51.506Z,7.70
2022-11-26T22:11:24.878Z,7.70
2022-11-26T22:13:52.780Z,7.70
2022-11-26T22:16:21.405Z,7.70
2022-11-26T22:18:49.455Z,7.60
2022-11-26T22:21:19.338Z,7.60
2022-11-26T22:23:46.633Z,7.60
2022-11-26T22:26:13.734Z,7.60
2022-11-26T22:28:41.152Z,7.60
2022-11-26T22:31:14.040Z,7.50
2022-11-26T22:33:41.579Z,7.50
2022-11-26T22:36:09.182Z,7.50
2022-11-26T22:38:37.541Z,7.50
2022-11-26T22:41:07.972Z,7.50
2022-11-26T22:43:35.200Z,7.50
2022-11-26T22:46:06.673Z,7.50
2022-11-26T22:48:34.814Z,7.50
2022-11-26T22:51:02.493Z,7.50
2022-11-26T22:53:29.862Z,7.40
2022-11-26T22:55:58.700Z,7.40
2022-11-26T22:58:27.668Z,7.40
2022-11-26T23:00:59.820Z,7.40
2022-11-26T23:03:28.454Z,7.40
2022-11-26T23:05:55.954Z,7.40
2022-11-26T23:08:23.272Z,7.40
2022-11-26T23:10:50.470Z,7.40
2022-11-26T23:13:18.024Z,7.40
2022-11-26T23:15:46.930Z,7.40
2022-11-26T23:18:16.225Z,7.40
2022-11-26T23:20:44.063Z,7.40
2022-11-26T23:23:11.121Z,7.30
2022-11-26T23:25:39.623Z,7.30
2022-11-26T23:28:07.424Z,7.40
2022-11-26T23:30:35.786Z,7.40
2022-11-26T23:33:03.007Z,7.30
2022-11-26T23:35:29.982Z,7.30
2022-11-26T23:37:56.934Z,7.30
2022-11-26T23:40:24.299Z,7.30
2022-11-26T23:42:51.508Z,7.30
2022-11-26T23:45:18.750Z,7.30
2022-11-26T23:47:45.787Z,7.30
2022-11-26T23:50:12.849Z,7.30
2022-11-26T23:52:39.819Z,7.20
2022-11-26T23:55:07.168Z,7.20
2022-11-26T23:57:34.678Z,7.20
